Airfield :
LOGIN :

Register | Disclaimer

   EN    FR    IT 

 










Legend :    VFR   Marginal VFR   IFR   Intensive IFR   Very Intensive IFR
Visi :
Ceiling :
>= 8 km
>= 3000ft
5 to 8 km
1000 to 3000 ft
1500m to 5 km
500 to 1000 ft
800 to 1500m
200 to 500 ft
< 800m
< 200 ft
Symbols :   Thunderstorms  Fog  Heavy snow  Heavy precipitations  Wind > 20 kt
SIGMETs :     Misc.  Thunderstorms  Icing  Turbulence  Mountain Waves  Volcanic Ashes







- Airport Elevation : 231 ft
- IATA code : WTN


EGXW - RAF Waddington

CURRENT METAR :
  • 261150Z 07009KT 9999 FEW036 BKN250 13/03 Q1027 BLU NOSIG

EXPIRED METARs :
  • 261050Z 07010KT CAVOK 12/02 Q1027 BLU NOSIG
  • 260950Z 05008KT CAVOK 10/04 Q1027 BLU NOSIG

TAF TAF EGXW
Valid from the 26 at 12:00 until the 27 at 06:00 UTC


261039Z 2612/2706 07010KT 9999 FEW030
BECMG 2619/2622 BKN008
PROB40
TEMPO 2623/2706 4000 BR BKN004
PROB30
TEMPO 2704/2706 2000 BKN002
No reported NOTAMs for that airfield.



MET'MAP, your aeronautical weather chart ! - Copyright ORBIFLY December 2007 - Disclaimer

ORBIFLY MET'MAP TEAM :

Programming & Development : Alexandra Zaïnal
Concept & Development : Baudouin d'Aumeries
Co-Development & Prog : Marc-Olivier Méhu
Technical & hardware support : Manuel Goepfert

Contact : metmap@orbifly.com




SOURCES & CREDITS :

   NOAA